Flight Track Log - Related Links

Times and Time Zones

All times are in EDT time to prevent confusion due to time zone crossing. See the UAL4596 flight status page for this flight to view local times or setup timezone preferences in your user account.

Time Position Orientation Groundspeed Altitude Reporting Facility
EDT Latitude Longitude Course Direction KTS MPH feet Rate Location/Type
Tue 03:28:08 PM 40.6667 -74.1833 294° West 167 192 1,000  Level New York TRACON
Tue 03:29:08 PM 40.6167 -74.2167 207° Southwest 210 242 2,600 1,850 Climbing New York TRACON
Tue 03:30:08 PM 40.6333 -74.2833 288° West 236 272 4,700 2,318 Climbing New York TRACON
Tue 03:31:00 PM 40.7474 -74.6709 277° West  Level FlightAware Approximate
Tue 03:32:00 PM 40.7579 -74.8018 276° West  Level FlightAware Approximate
Tue 03:32:04 PM 40.6672 -74.4400 286° West 239 275 9,400  Level New York Center
Tue 03:33:00 PM 40.7716 -74.9316 294° West  Level FlightAware Approximate
Tue 03:33:04 PM 40.6889 -74.5450 285° West 257 296 10,500  Level New York Center
Tue 03:34:05 PM 40.7086 -74.6419 285° West 299 344 11,500 1,525 Climbing New York Center
Tue 03:35:06 PM 40.7336 -74.7639 285° West 322 371 13,600 2,017 Climbing New York Center
Tue 03:36:04 PM 40.7531 -74.8636 284° West 317 365 15,500 2,017 Climbing New York Center
Tue 03:37:05 PM 40.7761 -74.9828 284° West 311 358 17,600 1,884 Climbing New York Center
Tue 03:38:05 PM 40.7936 -75.0744 284° West 300 345 19,300 1,881 Climbing New York Center
Tue 03:39:03 PM 40.7958 -75.1814 272° West 300 345 21,300 1,966 Climbing New York Center
Tue 03:40:04 PM 40.7772 -75.2925 258° West 300 345 23,200 1,686 Climbing New York Center
Tue 03:41:04 PM 40.7586 -75.3956 257° West 300 345 24,700 1,240 Climbing New York Center
Tue 03:42:05 PM 40.7231 -75.5000 246° West 300 345 25,700 1,091 Climbing New York Center
Tue 03:43:05 PM 40.6833 -75.6094 244° Southwest 314 361 26,900 1,450 Climbing New York Center
Tue 03:44:05 PM 40.6436 -75.7133 243° Southwest 325 374 28,600 1,636 Climbing New York Center
Tue 03:45:06 PM 40.6036 -75.8197 244° Southwest 325 374 30,200 1,537 Climbing New York Center
Tue 03:46:06 PM 40.5597 -75.9231 241° Southwest 325 374 31,700 915 Climbing New York Center
Tue 03:47:04 PM 40.5217 -76.0267 244° Southwest 325 374 32,000 151 Climbing New York Center
Tue 03:48:05 PM 40.4789 -76.1461 245° Southwest 339 390 32,000  Level New York Center
Tue 03:49:06 PM 40.4292 -76.2733 243° Southwest 369 425 32,000  Level New York Center
Tue 03:50:04 PM 40.3792 -76.4056 244° Southwest 391 450 32,000  Level New York Center
Tue 03:51:05 PM 40.3250 -76.5344 241° Southwest 407 468 32,000  Level New York Center
Tue 03:52:05 PM 40.2747 -76.6636 243° Southwest 407 468 32,000  Level New York Center
Tue 03:53:05 PM 40.2247 -76.7872 242° Southwest 396 456 32,000  Level New York Center
Tue 03:54:06 PM 40.1933 -76.9150 252° West 384 442 32,000  Level New York Center
Tue 03:55:04 PM 40.1675 -77.0486 256° West 379 436 32,000  Level New York Center
Tue 03:56:04 PM 40.1378 -77.1764 253° West 379 436 32,000 522 Level New York Center
Tue 03:57:45 PM 40.1081 -77.4014 260° West 369 425 33,400 857 Climbing Cleveland Center
Tue 03:58:45 PM 40.1075 -77.5292 270° West 364 419 34,300 950 Climbing Cleveland Center
Tue 03:59:45 PM 40.1067 -77.6567 270° West 364 419 35,300 850 Climbing Cleveland Center
Tue 04:00:45 PM 40.1039 -77.7900 268° West 364 419 36,000 350 Climbing Cleveland Center
Tue 04:01:45 PM 40.1028 -77.9175 269° West 364 419 36,000  Level Cleveland Center
Tue 04:02:45 PM 40.0997 -78.0561 268° West 370 426 36,000  Level Cleveland Center
Tue 04:03:45 PM 40.0964 -78.1919 268° West 370 426 36,000  Level Cleveland Center
Tue 04:04:45 PM 40.0928 -78.3278 268° West 370 426 36,000  Level Cleveland Center
Tue 04:05:45 PM 40.0892 -78.4608 268° West 370 426 36,000  Level Cleveland Center
Tue 04:06:45 PM 40.0875 -78.5967 269° West 370 426 36,000  Level Cleveland Center
Tue 04:07:45 PM 40.0856 -78.7297 269° West 370 426 36,000  Level Cleveland Center
Tue 04:08:45 PM 40.0814 -78.8683 268° West 375 432 36,000  Level Cleveland Center
Tue 04:09:45 PM 40.0772 -79.0231 268° West 386 444 36,000  Level Cleveland Center
Tue 04:10:45 PM 40.0750 -79.1586 269° West 386 444 36,000  Level Cleveland Center
Tue 04:11:45 PM 40.0703 -79.2972 267° West 386 444 36,000  Level Cleveland Center
Tue 04:12:45 PM 40.0697 -79.4328 270° West 386 444 36,000  Level Cleveland Center
Tue 04:13:45 PM 40.0647 -79.5686 267° West 386 444 36,000  Level Cleveland Center
Tue 04:14:45 PM 40.0597 -79.7069 267° West 386 444 36,000  Level Cleveland Center
Tue 04:15:45 PM 40.0564 -79.8400 268° West 386 444 36,000  Level Cleveland Center
Tue 04:16:45 PM 40.0511 -79.9783 267° West 381 438 36,000  Level Cleveland Center
Tue 04:17:45 PM 40.0475 -80.1139 268° West 381 438 36,000  Level Cleveland Center
Tue 04:18:45 PM 40.0436 -80.2522 268° West 386 444 36,000  Level Cleveland Center
Tue 04:19:45 PM 40.0356 -80.3633 265° West 386 444 36,000  Level Cleveland Center
Tue 04:20:45 PM 40.0317 -80.5125 268° West 386 444 36,000  Level Cleveland Center
Tue 04:21:45 PM 40.0256 -80.6508 267° West 386 444 36,000  Level Cleveland Center
Tue 04:22:45 PM 40.0211 -80.7892 268° West 386 444 36,000  Level Cleveland Center
Tue 04:23:45 PM 40.0186 -80.9275 269° West 386 444 36,000  Level Cleveland Center
Tue 04:24:45 PM 40.0161 -81.0628 269° West 386 444 36,000  Level Cleveland Center
Tue 04:26:04 PM 40.0100 -81.2531 268° West 380 437 36,000  Level Indianapolis Center
Tue 04:27:06 PM 40.0081 -81.3931 269° West 381 438 36,000  Level Indianapolis Center
Tue 04:28:08 PM 40.0050 -81.5336 268° West 384 442 36,000  Level Indianapolis Center
Tue 04:29:10 PM 40.0028 -81.6744 269° West 385 443 36,000  Level Indianapolis Center
Tue 04:30:12 PM 39.9978 -81.8319 268° West 383 441 36,000  Level Indianapolis Center
Tue 04:31:14 PM 39.9956 -81.9711 269° West 381 438 36,000 -48 Level Indianapolis Center
Tue 04:32:16 PM 39.9917 -82.1122 268° West 385 443 35,900  Descending Indianapolis Center
Tue 04:33:17 PM 39.9889 -82.2519 269° West 383 441 36,000 49 Climbing Indianapolis Center
Tue 04:34:19 PM 39.9853 -82.3928 268° West 387 445 36,000  Level Indianapolis Center
Tue 04:35:21 PM 39.9822 -82.5328 268° West 385 443 36,000  Level Indianapolis Center
Tue 04:36:23 PM 39.9772 -82.6725 267° West 383 441 36,000  Level Indianapolis Center
Tue 04:37:25 PM 39.9731 -82.8122 268° West 383 441 36,000  Level Indianapolis Center
Tue 04:38:27 PM 39.9683 -82.9744 268° West 382 440 36,000  Level Indianapolis Center
Tue 04:39:29 PM 39.9647 -83.1136 268° West 382 440 36,000  Level Indianapolis Center
Tue 04:40:32 PM 39.9617 -83.2533 268° West 384 442 36,000  Level Indianapolis Center
Tue 04:41:34 PM 39.9575 -83.3911 268° West 381 438 36,000  Level Indianapolis Center
Tue 04:42:36 PM 39.9519 -83.5278 267° West 383 441 36,000  Level Indianapolis Center
Tue 04:43:38 PM 39.9467 -83.6894 268° West 383 441 36,000  Level Indianapolis Center
Tue 04:44:40 PM 39.9408 -83.8250 267° West 376 433 36,000  Level Indianapolis Center
Tue 04:45:42 PM 39.9358 -83.9628 267° West 379 436 36,000  Level Indianapolis Center
Tue 04:46:44 PM 39.9294 -84.1006 267° West 378 435 36,000  Level Indianapolis Center
Tue 04:47:46 PM 39.9244 -84.2378 267° West 378 435 36,000  Level Indianapolis Center
Tue 04:48:48 PM 39.9181 -84.3767 267° West 381 438 36,000  Level Indianapolis Center
Tue 04:49:50 PM 39.9114 -84.5386 267° West 381 438 36,000  Level Indianapolis Center
Tue 04:50:52 PM 39.9039 -84.6781 266° West 383 441 36,000  Level Indianapolis Center
Tue 04:51:54 PM 39.8969 -84.8158 266° West 380 437 36,000  Level Indianapolis Center
Tue 04:52:56 PM 39.8903 -84.9547 266° West 380 437 36,000  Level Indianapolis Center
Tue 04:53:58 PM 39.8839 -85.0925 267° West 379 436 36,000  Level Indianapolis Center
Tue 04:55:00 PM 39.8775 -85.2308 267° West 380 437 36,000  Level Indianapolis Center
Tue 04:56:02 PM 39.8703 -85.3697 266° West 381 438 36,000  Level Indianapolis Center
Tue 04:57:04 PM 39.8614 -85.5322 266° West 383 441 36,000  Level Indianapolis Center
Tue 04:58:06 PM 39.8422 -85.6703 260° West 384 442 36,000  Level Indianapolis Center
Tue 04:59:08 PM 39.8164 -85.8067 256° West 384 442 36,000  Level Indianapolis Center
Tue 05:00:10 PM 39.7933 -85.9408 257° West 385 443 36,000  Level Indianapolis Center
Tue 05:01:12 PM 39.7681 -86.0767 256° West 386 444 36,000  Level Indianapolis Center
Tue 05:02:14 PM 39.7431 -86.2119 257° West 385 443 36,000  Level Indianapolis Center
Tue 05:03:16 PM 39.7183 -86.3489 257° West 387 445 36,000  Level Indianapolis Center
Tue 05:04:19 PM 39.6883 -86.5122 257° West 387 445 36,000  Level Indianapolis Center
Tue 05:05:21 PM 39.6631 -86.6489 257° West 388 447 36,000  Level Indianapolis Center
Tue 05:06:23 PM 39.6375 -86.7842 256° West 387 445 36,000 -484 Level Indianapolis Center
Tue 05:07:25 PM 39.6117 -86.9200 256° West 388 447 35,000 -968 Descending Indianapolis Center
Tue 05:08:27 PM 39.5853 -87.0572 256° West 392 451 34,000 -1,016 Descending Indianapolis Center
Tue 05:09:29 PM 39.5589 -87.1967 256° West 398 458 32,900 -1,210 Descending Indianapolis Center
Tue 05:10:31 PM 39.5258 -87.3650 256° West 402 463 31,500 -1,403 Descending Indianapolis Center
Tue 05:11:33 PM 39.4981 -87.5081 256° West 407 468 30,000 -1,403 Descending Indianapolis Center
Tue 05:12:35 PM 39.4689 -87.6531 255° West 415 478 28,600 -968 Descending Indianapolis Center
Tue 05:13:37 PM 39.4408 -87.7981 256° West 415 478 28,000 -290 Descending Indianapolis Center
Tue 05:14:39 PM 39.4125 -87.9389 255° West 411 473 28,000  Level Indianapolis Center
Tue 05:15:41 PM 39.3847 -88.0733 255° West 399 459 28,000  Level Indianapolis Center
Tue 05:16:43 PM 39.3492 -88.2075 251° West 394 453 28,000  Level Indianapolis Center
Tue 05:17:45 PM 39.3058 -88.3736 251° West 400 460 28,000  Level Indianapolis Center
Tue 05:18:47 PM 39.2700 -88.5097 251° West 402 463 28,000 -581 Level Indianapolis Center
Tue 05:19:49 PM 39.2339 -88.6481 251° West 404 465 26,800 -1,355 Descending Indianapolis Center
Tue 05:20:51 PM 39.1958 -88.7833 250° West 402 463 25,200 -1,548 Descending Indianapolis Center
Tue 05:21:53 PM 39.1622 -88.9114 251° West 390 449 23,600 -1,500 Descending Indianapolis Center
Tue 05:22:55 PM 39.1275 -89.0400 251° West 383 441 22,100 -1,659 Descending Indianapolis Center
Tue 05:23:56 PM 39.0864 -89.1906 251° West 377 434 20,200 -1,725 Descending Indianapolis Center
Tue 05:24:15 PM 39.0817 -89.1642 103° East 357 411 19,800 -1,385 Descending FAA TRACON SMA TRACON (SMA)
Tue 05:24:35 PM 39.0711 -89.2119 254° West 362 417 19,300 -1,538 Descending FAA TRACON SMA TRACON (SMA)
Tue 05:24:54 PM 39.0617 -89.2494 252° West 361 415 18,800 -1,650 Descending FAA TRACON SMA TRACON (SMA)
Tue 05:25:15 PM 39.0508 -89.2967 254° West 357 411 18,200 -1,756 Descending FAA TRACON SMA TRACON (SMA)
Tue 05:25:35 PM 39.0428 -89.3339 254° West 352 405 17,600 -1,692 Descending FAA TRACON SMA TRACON (SMA)
Tue 05:25:54 PM 39.0347 -89.3700 254° West 348 400 17,100 -1,650 Descending FAA TRACON SMA TRACON (SMA)
Tue 05:26:15 PM 39.0225 -89.4147 251° West 343 395 16,500 -1,610 Descending FAA TRACON SMA TRACON (SMA)
Tue 05:26:35 PM 39.0144 -89.4503 254° West 340 391 16,000 -1,385 Descending FAA TRACON SMA TRACON (SMA)
Tue 05:26:54 PM 39.0061 -89.4856 253° West 337 388 15,600 -1,500 Descending FAA TRACON SMA TRACON (SMA)
Tue 05:27:15 PM 38.9961 -89.5294 254° West 333 383 15,000 -1,024 Descending FAA TRACON SMA TRACON (SMA)
Tue 05:27:35 PM 38.9858 -89.5628 248° West 327 376 14,900 -154 Descending FAA TRACON SMA TRACON (SMA)
Tue 05:27:54 PM 38.9756 -89.5958 248° West 325 374 14,900  Level FAA TRACON SMA TRACON (SMA)
Tue 05:28:15 PM 38.9617 -89.6367 246° West 324 373 14,900 -293 Level FAA TRACON SMA TRACON (SMA)
Tue 05:28:35 PM 38.9517 -89.6692 248° West 321 369 14,700 -900 Descending FAA TRACON SMA TRACON (SMA)
Tue 05:28:55 PM 38.9414 -89.7022 248° West 322 371 14,300 -1,500 Descending FAA TRACON SMA TRACON (SMA)
Tue 05:29:15 PM 38.9281 -89.7431 247° West 322 371 13,700 -1,650 Descending FAA TRACON SMA TRACON (SMA)
Tue 05:29:35 PM 38.9178 -89.7758 248° West 323 372 13,200 -1,350 Descending FAA TRACON SMA TRACON (SMA)
Tue 05:29:55 PM 38.9072 -89.8083 247° West 322 371 12,800 -1,350 Descending FAA TRACON SMA TRACON (SMA)
Tue 05:30:15 PM 38.8964 -89.8406 247° West 321 369 12,300 -1,800 Descending FAA TRACON SMA TRACON (SMA)
Tue 05:30:35 PM 38.8839 -89.8806 248° West 315 362 11,600 -1,950 Descending FAA TRACON SMA TRACON (SMA)
Tue 05:30:55 PM 38.8739 -89.9114 247° West 306 352 11,000 -1,800 Descending FAA TRACON SMA TRACON (SMA)
Tue 05:31:15 PM 38.8644 -89.9408 248° West 293 337 10,400 -1,650 Descending FAA TRACON SMA TRACON (SMA)
Tue 05:31:35 PM 38.8531 -89.9764 248° West 280 322 9,900 -1,350 Descending FAA TRACON SMA TRACON (SMA)
Tue 05:31:55 PM 38.8444 -90.0025 247° West 265 305 9,500 -1,350 Descending FAA TRACON SMA TRACON (SMA)
Tue 05:32:15 PM 38.8367 -90.0283 249° West 254 292 9,000 -1,800 Descending FAA TRACON SMA TRACON (SMA)
Tue 05:32:35 PM 38.8264 -90.0594 247° West 246 283 8,300 -1,500 Descending FAA TRACON SMA TRACON (SMA)
Tue 05:32:55 PM 38.8189 -90.0839 249° West 241 277 8,000 -600 Descending FAA TRACON SMA TRACON (SMA)
Tue 05:33:15 PM 38.8106 -90.1075 246° West 238 274 7,900 -150 Descending FAA TRACON SMA TRACON (SMA)
Tue 05:33:35 PM 38.8017 -90.1386 250° West 240 276 7,900 150 Level FAA TRACON SMA TRACON (SMA)
Tue 05:33:55 PM 38.8053 -90.1658 280° West 256 295 8,000  Climbing FAA TRACON SMA TRACON (SMA)
Tue 05:34:15 PM 38.8186 -90.1983 298° West 268 308 7,900 -900 Descending FAA TRACON SMA TRACON (SMA)
Tue 05:34:35 PM 38.8283 -90.2244 296° West 266 306 7,400 -1,650 Descending FAA TRACON SMA TRACON (SMA)
Tue 05:34:55 PM 38.8378 -90.2497 296° West 257 296 6,800 -2,100 Descending FAA TRACON SMA TRACON (SMA)
Tue 05:35:15 PM 38.8486 -90.2800 295° West 244 281 6,000 -2,100 Descending FAA TRACON SMA TRACON (SMA)
Tue 05:35:35 PM 38.8567 -90.3031 294° West 235 270 5,400 -1,800 Descending FAA TRACON SMA TRACON (SMA)
Tue 05:35:55 PM 38.8642 -90.3258 293° West 226 260 4,800 -2,100 Descending FAA TRACON SMA TRACON (SMA)
Tue 05:36:15 PM 38.8689 -90.3547 282° West 226 260 4,000 -1,950 Descending FAA TRACON SMA TRACON (SMA)
Tue 05:36:35 PM 38.8608 -90.3758 244° Southwest 220 253 3,500 -1,500 Descending FAA TRACON SMA TRACON (SMA)

Login

Don't have an account? Register now (free) for customized features, flight alerts, and more!